sensor_id;sensor_type;location;lat;lon;timestamp;pressure;altitude;pressure_sealevel;temperature;humidity
46303;BME280;32029;51.358;5.628;2023-05-21T00:00:10;101557.78;;;16.37;67.78
46303;BME280;32029;51.358;5.628;2023-05-21T00:02:38;101541.34;;;16.23;68.28
46303;BME280;32029;51.358;5.628;2023-05-21T00:05:06;101557.56;;;16.32;68.55
46303;BME280;32029;51.358;5.628;2023-05-21T00:07:36;101560.75;;;16.29;68.35
46303;BME280;32029;51.358;5.628;2023-05-21T00:10:03;101519.53;;;16.06;68.73
46303;BME280;32029;51.358;5.628;2023-05-21T00:12:30;101548.59;;;16.24;68.99
46303;BME280;32029;51.358;5.628;2023-05-21T00:14:58;101521.50;;;16.12;69.11
46303;BME280;32029;51.358;5.628;2023-05-21T00:17:25;101528.50;;;16.08;69.19
46303;BME280;32029;51.358;5.628;2023-05-21T00:19:51;101537.03;;;16.13;69.66
46303;BME280;32029;51.358;5.628;2023-05-21T00:22:18;101538.28;;;16.11;69.56
46303;BME280;32029;51.358;5.628;2023-05-21T00:24:45;101534.91;;;16.09;69.89
46303;BME280;32029;51.358;5.628;2023-05-21T00:27:12;101484.28;;;15.74;69.93
46303;BME280;32029;51.358;5.628;2023-05-21T00:29:39;101498.78;;;15.82;69.86
46303;BME280;32029;51.358;5.628;2023-05-21T00:32:06;101534.22;;;16.00;70.15
46303;BME280;32029;51.358;5.628;2023-05-21T00:34:32;101501.75;;;15.74;70.30
46303;BME280;32029;51.358;5.628;2023-05-21T00:36:59;101530.56;;;15.93;70.49
46303;BME280;32029;51.358;5.628;2023-05-21T00:39:28;101496.16;;;15.67;70.99
46303;BME280;32029;51.358;5.628;2023-05-21T00:41:54;101520.94;;;15.82;71.05
46303;BME280;32029;51.358;5.628;2023-05-21T00:44:22;101532.44;;;15.86;71.21
46303;BME280;32029;51.358;5.628;2023-05-21T00:46:50;101527.31;;;15.83;71.48
46303;BME280;32029;51.358;5.628;2023-05-21T00:49:22;101511.06;;;15.66;71.65
46303;BME280;32029;51.358;5.628;2023-05-21T00:51:49;101519.84;;;15.77;72.17
46303;BME280;32029;51.358;5.628;2023-05-21T00:54:17;101511.06;;;15.66;72.00
46303;BME280;32029;51.358;5.628;2023-05-21T00:56:44;101518.34;;;15.74;72.18
46303;BME280;32029;51.358;5.628;2023-05-21T00:59:13;101524.09;;;15.73;72.36
46303;BME280;32029;51.358;5.628;2023-05-21T01:01:44;101514.50;;;15.68;72.39
46303;BME280;32029;51.358;5.628;2023-05-21T01:04:11;101514.81;;;15.59;72.26
46303;BME280;32029;51.358;5.628;2023-05-21T01:06:38;101512.25;;;15.57;72.65
46303;BME280;32029;51.358;5.628;2023-05-21T01:09:05;101493.25;;;15.48;72.72
46303;BME280;32029;51.358;5.628;2023-05-21T01:11:49;101518.66;;;15.58;73.23
46303;BME280;32029;51.358;5.628;2023-05-21T01:14:17;101510.97;;;15.53;73.19
46303;BME280;32029;51.358;5.628;2023-05-21T01:16:47;101515.22;;;15.56;73.12
46303;BME280;32029;51.358;5.628;2023-05-21T01:19:16;101513.50;;;15.55;73.33
46303;BME280;32029;51.358;5.628;2023-05-21T01:21:45;101500.69;;;15.47;73.18
46303;BME280;32029;51.358;5.628;2023-05-21T01:24:14;101515.66;;;15.53;73.09
46303;BME280;32029;51.358;5.628;2023-05-21T01:26:41;101516.03;;;15.50;73.24
46303;BME280;32029;51.358;5.628;2023-05-21T01:29:09;101500.66;;;15.40;73.46
46303;BME280;32029;51.358;5.628;2023-05-21T01:31:55;101520.47;;;15.44;73.58
46303;BME280;32029;51.358;5.628;2023-05-21T01:34:33;101514.28;;;15.42;73.69
46303;BME280;32029;51.358;5.628;2023-05-21T01:37:24;101516.38;;;15.40;73.76
46303;BME280;32029;51.358;5.628;2023-05-21T01:39:57;101387.00;;;14.59;74.14
46303;BME280;32029;51.358;5.628;2023-05-21T01:42:27;101514.06;;;15.37;74.12
46303;BME280;32029;51.358;5.628;2023-05-21T01:44:55;101488.59;;;15.20;74.11
46303;BME280;32029;51.358;5.628;2023-05-21T01:47:23;101509.56;;;15.36;74.31
46303;BME280;32029;51.358;5.628;2023-05-21T01:49:51;101508.72;;;15.35;74.20
46303;BME280;32029;51.358;5.628;2023-05-21T01:52:18;101513.38;;;15.35;74.14
46303;BME280;32029;51.358;5.628;2023-05-21T01:54:45;101491.59;;;15.18;74.36
46303;BME280;32029;51.358;5.628;2023-05-21T01:57:12;101511.69;;;15.34;74.38
46303;BME280;32029;51.358;5.628;2023-05-21T01:59:38;101501.81;;;15.25;74.50
46303;BME280;32029;51.358;5.628;2023-05-21T02:02:05;101508.25;;;15.32;74.53
46303;BME280;32029;51.358;5.628;2023-05-21T02:04:32;101514.84;;;15.31;74.63
46303;BME280;32029;51.358;5.628;2023-05-21T02:06:58;101504.84;;;15.30;74.93
46303;BME280;32029;51.358;5.628;2023-05-21T02:09:25;101494.59;;;15.24;75.00
46303;BME280;32029;51.358;5.628;2023-05-21T02:11:52;101487.75;;;15.19;75.19
46303;BME280;32029;51.358;5.628;2023-05-21T02:14:19;101490.53;;;15.19;75.29
46303;BME280;32029;51.358;5.628;2023-05-21T02:16:46;101495.41;;;15.17;75.04
46303;BME280;32029;51.358;5.628;2023-05-21T02:19:12;101478.56;;;15.12;75.36
46303;BME280;32029;51.358;5.628;2023-05-21T02:21:39;101480.97;;;15.22;75.41
46303;BME280;32029;51.358;5.628;2023-05-21T02:24:06;101485.44;;;15.23;75.31
46303;BME280;32029;51.358;5.628;2023-05-21T02:26:32;101490.31;;;15.21;75.30
46303;BME280;32029;51.358;5.628;2023-05-21T02:28:59;101488.44;;;15.22;75.59
46303;BME280;32029;51.358;5.628;2023-05-21T02:31:26;101475.41;;;15.15;75.51
46303;BME280;32029;51.358;5.628;2023-05-21T02:33:52;101493.53;;;15.25;75.49
46303;BME280;32029;51.358;5.628;2023-05-21T02:36:19;101489.91;;;15.24;75.66
46303;BME280;32029;51.358;5.628;2023-05-21T02:38:46;101466.00;;;15.10;75.56
46303;BME280;32029;51.358;5.628;2023-05-21T02:41:13;101421.78;;;14.82;75.73
46303;BME280;32029;51.358;5.628;2023-05-21T02:43:39;101488.44;;;15.22;75.80
46303;BME280;32029;51.358;5.628;2023-05-21T02:46:06;101479.69;;;15.25;76.16
46303;BME280;32029;51.358;5.628;2023-05-21T02:48:33;101484.38;;;15.24;76.45
46303;BME280;32029;51.358;5.628;2023-05-21T02:50:59;101483.94;;;15.20;76.43
46303;BME280;32029;51.358;5.628;2023-05-21T02:53:26;101469.88;;;15.15;76.79
46303;BME280;32029;51.358;5.628;2023-05-21T02:55:53;101483.53;;;15.24;76.54
46303;BME280;32029;51.358;5.628;2023-05-21T02:58:19;101462.63;;;15.14;76.66
46303;BME280;32029;51.358;5.628;2023-05-21T03:00:48;101473.31;;;15.24;76.88
46303;BME280;32029;51.358;5.628;2023-05-21T03:03:15;101468.63;;;15.18;76.59
46303;BME280;32029;51.358;5.628;2023-05-21T03:05:42;101446.00;;;15.08;76.58
46303;BME280;32029;51.358;5.628;2023-05-21T03:08:08;101448.97;;;15.06;76.81
46303;BME280;32029;51.358;5.628;2023-05-21T03:10:35;101458.03;;;15.22;76.96
46303;BME280;32029;51.358;5.628;2023-05-21T03:13:02;101430.03;;;15.03;76.93
46303;BME280;32029;51.358;5.628;2023-05-21T03:15:30;101453.69;;;15.12;76.89
46303;BME280;32029;51.358;5.628;2023-05-21T03:17:58;101443.03;;;15.09;77.06
46303;BME280;32029;51.358;5.628;2023-05-21T03:20:25;101470.97;;;15.21;77.06
46303;BME280;32029;51.358;5.628;2023-05-21T03:22:53;101461.81;;;15.20;77.08
46303;BME280;32029;51.358;5.628;2023-05-21T03:25:21;101458.41;;;15.18;77.39
46303;BME280;32029;51.358;5.628;2023-05-21T03:27:50;101440.69;;;15.06;77.41
46303;BME280;32029;51.358;5.628;2023-05-21T03:30:17;101434.91;;;15.01;77.51
46303;BME280;32029;51.358;5.628;2023-05-21T03:32:45;101457.72;;;15.10;77.50
46303;BME280;32029;51.358;5.628;2023-05-21T03:35:12;101461.38;;;15.17;77.56
46303;BME280;32029;51.358;5.628;2023-05-21T03:37:38;101445.78;;;15.09;77.75
46303;BME280;32029;51.358;5.628;2023-05-21T03:40:06;101458.41;;;15.18;77.76
46303;BME280;32029;51.358;5.628;2023-05-21T03:42:33;101457.50;;;15.11;77.60
46303;BME280;32029;51.358;5.628;2023-05-21T03:44:59;101465.66;;;15.19;77.81
46303;BME280;32029;51.358;5.628;2023-05-21T03:47:26;101449.22;;;15.11;77.71
46303;BME280;32029;51.358;5.628;2023-05-21T03:49:53;101446.22;;;15.06;77.72
46303;BME280;32029;51.358;5.628;2023-05-21T03:52:19;101446.84;;;15.08;77.91
46303;BME280;32029;51.358;5.628;2023-05-21T03:54:46;101456.06;;;15.15;77.92
46303;BME280;32029;51.358;5.628;2023-05-21T03:57:13;101439.22;;;15.10;78.01
46303;BME280;32029;51.358;5.628;2023-05-21T03:59:39;101421.94;;;15.02;77.69
46303;BME280;32029;51.358;5.628;2023-05-21T04:02:06;101455.66;;;15.18;78.17
46303;BME280;32029;51.358;5.628;2023-05-21T04:04:33;101440.31;;;15.16;78.08
46303;BME280;32029;51.358;5.628;2023-05-21T04:07:00;101421.06;;;15.01;78.24
46303;BME280;32029;51.358;5.628;2023-05-21T04:09:26;101458.03;;;15.22;78.28
46303;BME280;32029;51.358;5.628;2023-05-21T04:11:53;101459.31;;;15.26;78.39
46303;BME280;32029;51.358;5.628;2023-05-21T04:14:20;101458.66;;;15.24;78.27
46303;BME280;32029;51.358;5.628;2023-05-21T04:16:47;101467.41;;;15.27;78.66
46303;BME280;32029;51.358;5.628;2023-05-21T04:19:15;101468.00;;;15.23;78.70
46303;BME280;32029;51.358;5.628;2023-05-21T04:21:41;101471.69;;;15.30;78.43
46303;BME280;32029;51.358;5.628;2023-05-21T04:24:10;101467.63;;;15.26;78.53
46303;BME280;32029;51.358;5.628;2023-05-21T04:26:37;101457.13;;;15.21;78.52
46303;BME280;32029;51.358;5.628;2023-05-21T04:29:07;101471.25;;;15.33;78.49
46303;BME280;32029;51.358;5.628;2023-05-21T04:31:35;101467.84;;;15.31;78.36
46303;BME280;32029;51.358;5.628;2023-05-21T04:34:02;101450.59;;;15.29;78.45
46303;BME280;32029;51.358;5.628;2023-05-21T04:36:28;101463.00;;;15.39;78.49
46303;BME280;32029;51.358;5.628;2023-05-21T04:38:55;101485.63;;;15.50;78.77
46303;BME280;32029;51.358;5.628;2023-05-21T04:41:22;101477.72;;;15.47;78.44
46303;BME280;32029;51.358;5.628;2023-05-21T04:43:48;101488.63;;;15.55;78.61
46303;BME280;32029;51.358;5.628;2023-05-21T04:46:20;101468.75;;;15.44;78.64
46303;BME280;32029;51.358;5.628;2023-05-21T04:48:53;101480.53;;;15.53;78.70
46303;BME280;32029;51.358;5.628;2023-05-21T04:51:23;101471.81;;;15.56;78.61
46303;BME280;32029;51.358;5.628;2023-05-21T04:53:50;101468.63;;;15.59;78.62
46303;BME280;32029;51.358;5.628;2023-05-21T04:56:17;101460.41;;;15.66;78.59
46303;BME280;32029;51.358;5.628;2023-05-21T04:58:44;101482.81;;;15.78;78.52
46303;BME280;32029;51.358;5.628;2023-05-21T05:01:14;101460.00;;;15.69;78.33
46303;BME280;32029;51.358;5.628;2023-05-21T05:03:40;101465.81;;;15.81;78.42
46303;BME280;32029;51.358;5.628;2023-05-21T05:06:07;101447.47;;;15.73;78.44
46303;BME280;32029;51.358;5.628;2023-05-21T05:08:34;101456.22;;;15.77;78.49
46303;BME280;32029;51.358;5.628;2023-05-21T05:11:00;101478.63;;;15.95;78.25
46303;BME280;32029;51.358;5.628;2023-05-21T05:13:28;101463.94;;;15.95;78.37
46303;BME280;32029;51.358;5.628;2023-05-21T05:15:54;101466.94;;;16.06;78.64
46303;BME280;32029;51.358;5.628;2023-05-21T05:18:22;101477.22;;;16.12;78.33
46303;BME280;32029;51.358;5.628;2023-05-21T05:20:49;101472.53;;;16.20;78.31
46303;BME280;32029;51.358;5.628;2023-05-21T05:23:16;101450.81;;;16.16;78.23
46303;BME280;32029;51.358;5.628;2023-05-21T05:25:42;101463.19;;;16.34;77.85
46303;BME280;32029;51.358;5.628;2023-05-21T05:28:09;101421.44;;;16.15;77.62
46303;BME280;32029;51.358;5.628;2023-05-21T05:30:36;101450.63;;;16.38;77.54
46303;BME280;32029;51.358;5.628;2023-05-21T05:33:03;101464.50;;;16.51;77.42
46303;BME280;32029;51.358;5.628;2023-05-21T05:35:29;101457.06;;;16.58;77.44
46303;BME280;32029;51.358;5.628;2023-05-21T05:37:57;101433.41;;;16.56;76.99
46303;BME280;32029;51.358;5.628;2023-05-21T05:40:23;101454.09;;;16.80;76.93
46303;BME280;32029;51.358;5.628;2023-05-21T05:42:50;101445.16;;;16.84;76.32
46303;BME280;32029;51.358;5.628;2023-05-21T05:45:18;101451.53;;;16.92;76.10
46303;BME280;32029;51.358;5.628;2023-05-21T05:47:45;101447.94;;;16.98;75.68
46303;BME280;32029;51.358;5.628;2023-05-21T05:50:12;101463.25;;;17.13;75.25
46303;BME280;32029;51.358;5.628;2023-05-21T05:52:38;101455.16;;;17.19;75.60
46303;BME280;32029;51.358;5.628;2023-05-21T05:55:05;101448.31;;;17.21;75.00
46303;BME280;32029;51.358;5.628;2023-05-21T05:57:34;101440.63;;;17.30;74.78
46303;BME280;32029;51.358;5.628;2023-05-21T06:00:02;101448.28;;;17.41;74.60
46303;BME280;32029;51.358;5.628;2023-05-21T06:02:29;101450.81;;;17.49;74.26
46303;BME280;32029;51.358;5.628;2023-05-21T06:04:56;101466.56;;;17.62;73.89
46303;BME280;32029;51.358;5.628;2023-05-21T06:07:23;101470.81;;;17.71;73.85
46303;BME280;32029;51.358;5.628;2023-05-21T06:09:50;101458.84;;;17.71;73.70
46303;BME280;32029;51.358;5.628;2023-05-21T06:12:17;101452.88;;;17.80;73.14
46303;BME280;32029;51.358;5.628;2023-05-21T06:14:43;101446.25;;;17.81;73.19
46303;BME280;32029;51.358;5.628;2023-05-21T06:17:14;101467.31;;;18.02;72.21
46303;BME280;32029;51.358;5.628;2023-05-21T06:19:41;101465.13;;;18.11;72.15
46303;BME280;32029;51.358;5.628;2023-05-21T06:22:07;101471.50;;;18.18;71.66
46303;BME280;32029;51.358;5.628;2023-05-21T06:24:34;101460.59;;;18.17;71.65
46303;BME280;32029;51.358;5.628;2023-05-21T06:27:01;101469.72;;;18.24;71.37
46303;BME280;32029;51.358;5.628;2023-05-21T06:29:29;101470.78;;;18.29;71.57
46303;BME280;32029;51.358;5.628;2023-05-21T06:31:56;101460.31;;;18.25;71.35
46303;BME280;32029;51.358;5.628;2023-05-21T06:34:22;101474.31;;;18.43;71.02
46303;BME280;32029;51.358;5.628;2023-05-21T06:36:49;101432.09;;;18.28;70.73
46303;BME280;32029;51.358;5.628;2023-05-21T06:39:16;101466.97;;;18.55;70.44
46303;BME280;32029;51.358;5.628;2023-05-21T06:41:43;101446.69;;;18.48;70.03
46303;BME280;32029;51.358;5.628;2023-05-21T06:44:09;101472.03;;;18.65;69.70
46303;BME280;32029;51.358;5.628;2023-05-21T06:46:36;101464.94;;;18.69;69.85
46303;BME280;32029;51.358;5.628;2023-05-21T06:49:03;101480.13;;;18.73;69.43
46303;BME280;32029;51.358;5.628;2023-05-21T06:51:32;101465.78;;;18.76;69.25
46303;BME280;32029;51.358;5.628;2023-05-21T06:53:59;101398.50;;;18.36;69.28
46303;BME280;32029;51.358;5.628;2023-05-21T06:56:26;101465.94;;;18.81;69.30
46303;BME280;32029;51.358;5.628;2023-05-21T06:58:52;101431.63;;;18.63;69.26
46303;BME280;32029;51.358;5.628;2023-05-21T07:01:19;101443.16;;;18.73;69.12
46303;BME280;32029;51.358;5.628;2023-05-21T07:03:48;101468.00;;;18.93;69.36
46303;BME280;32029;51.358;5.628;2023-05-21T07:06:14;101442.19;;;18.85;69.16
46303;BME280;32029;51.358;5.628;2023-05-21T07:08:43;101408.72;;;18.67;68.73
46303;BME280;32029;51.358;5.628;2023-05-21T07:11:09;101446.16;;;18.96;68.59
46303;BME280;32029;51.358;5.628;2023-05-21T07:13:36;101461.41;;;19.12;68.57
46303;BME280;32029;51.358;5.628;2023-05-21T07:16:03;101451.91;;;19.20;69.05
46303;BME280;32029;51.358;5.628;2023-05-21T07:18:30;101453.16;;;19.24;68.57
46303;BME280;32029;51.358;5.628;2023-05-21T07:20:56;101460.75;;;19.35;68.71
46303;BME280;32029;51.358;5.628;2023-05-21T07:23:23;101458.06;;;19.47;68.25
46303;BME280;32029;51.358;5.628;2023-05-21T07:25:50;101433.31;;;19.39;67.97
46303;BME280;32029;51.358;5.628;2023-05-21T07:28:17;101446.72;;;19.67;67.78
46303;BME280;32029;51.358;5.628;2023-05-21T07:30:43;101421.06;;;19.58;67.37
46303;BME280;32029;51.358;5.628;2023-05-21T07:33:10;101454.13;;;19.91;67.19
46303;BME280;32029;51.358;5.628;2023-05-21T07:35:38;101460.59;;;20.03;67.10
46303;BME280;32029;51.358;5.628;2023-05-21T07:38:04;101430.41;;;20.00;66.22
46303;BME280;32029;51.358;5.628;2023-05-21T07:40:31;101453.28;;;20.21;65.86
46303;BME280;32029;51.358;5.628;2023-05-21T07:42:58;101424.66;;;20.14;65.60
46303;BME280;32029;51.358;5.628;2023-05-21T07:45:24;101447.03;;;20.37;65.49
46303;BME280;32029;51.358;5.628;2023-05-21T07:47:51;101433.31;;;20.36;64.92
46303;BME280;32029;51.358;5.628;2023-05-21T07:50:18;101442.22;;;20.44;64.48
46303;BME280;32029;51.358;5.628;2023-05-21T07:52:44;101436.16;;;20.47;64.09
46303;BME280;32029;51.358;5.628;2023-05-21T07:55:11;101435.09;;;20.48;64.29
46303;BME280;32029;51.358;5.628;2023-05-21T07:57:38;101449.31;;;20.59;63.98
46303;BME280;32029;51.358;5.628;2023-05-21T08:00:05;101441.94;;;20.64;64.58
46303;BME280;32029;51.358;5.628;2023-05-21T08:02:34;101442.34;;;20.79;64.39
46303;BME280;32029;51.358;5.628;2023-05-21T08:05:01;101433.34;;;20.89;64.13
46303;BME280;32029;51.358;5.628;2023-05-21T08:07:28;101442.72;;;21.07;63.39
46303;BME280;32029;51.358;5.628;2023-05-21T08:09:54;101431.56;;;21.18;63.33
46303;BME280;32029;51.358;5.628;2023-05-21T08:12:21;101410.56;;;21.16;62.83
46303;BME280;32029;51.358;5.628;2023-05-21T08:14:48;101422.56;;;21.28;62.78
46303;BME280;32029;51.358;5.628;2023-05-21T08:17:15;101422.84;;;21.38;62.38
46303;BME280;32029;51.358;5.628;2023-05-21T08:19:41;101434.34;;;21.53;61.85
46303;BME280;32029;51.358;5.628;2023-05-21T08:22:08;101434.44;;;21.59;61.99
46303;BME280;32029;51.358;5.628;2023-05-21T08:24:35;101398.44;;;21.45;62.07
46303;BME280;32029;51.358;5.628;2023-05-21T08:27:02;101434.69;;;21.69;61.58
46303;BME280;32029;51.358;5.628;2023-05-21T08:29:28;101381.81;;;21.39;61.27
46303;BME280;32029;51.358;5.628;2023-05-21T08:31:55;101428.84;;;21.70;61.49
46303;BME280;32029;51.358;5.628;2023-05-21T08:34:22;101400.31;;;21.57;61.52
46303;BME280;32029;51.358;5.628;2023-05-21T08:36:49;101426.88;;;21.71;61.64
46303;BME280;32029;51.358;5.628;2023-05-21T08:39:16;101429.19;;;21.74;61.89
46303;BME280;32029;51.358;5.628;2023-05-21T08:41:43;101429.91;;;21.81;61.92
46303;BME280;32029;51.358;5.628;2023-05-21T08:44:19;101421.25;;;21.83;62.00
46303;BME280;32029;51.358;5.628;2023-05-21T08:46:48;101409.38;;;21.75;60.76
46303;BME280;32029;51.358;5.628;2023-05-21T08:49:16;101424.75;;;21.90;61.67
46303;BME280;32029;51.358;5.628;2023-05-21T08:51:44;101405.34;;;21.83;61.73
46303;BME280;32029;51.358;5.628;2023-05-21T08:54:12;101436.38;;;21.98;61.58
46303;BME280;32029;51.358;5.628;2023-05-21T08:56:40;101424.22;;;22.05;61.39
46303;BME280;32029;51.358;5.628;2023-05-21T08:59:12;101427.59;;;22.07;60.70
46303;BME280;32029;51.358;5.628;2023-05-21T09:01:40;101417.53;;;22.06;61.17
46303;BME280;32029;51.358;5.628;2023-05-21T09:04:07;101417.53;;;22.06;60.78
46303;BME280;32029;51.358;5.628;2023-05-21T09:06:35;101403.25;;;21.90;60.78
46303;BME280;32029;51.358;5.628;2023-05-21T09:09:16;101424.72;;;22.01;61.56
46303;BME280;32029;51.358;5.628;2023-05-21T09:11:46;101421.31;;;21.99;61.38
46303;BME280;32029;51.358;5.628;2023-05-21T09:14:13;101407.59;;;21.98;61.27
46303;BME280;32029;51.358;5.628;2023-05-21T09:16:41;101411.00;;;22.00;61.20
46303;BME280;32029;51.358;5.628;2023-05-21T09:19:09;101416.56;;;22.12;61.28
46303;BME280;32029;51.358;5.628;2023-05-21T09:21:37;101393.16;;;22.01;61.24
46303;BME280;32029;51.358;5.628;2023-05-21T09:24:05;101400.41;;;22.14;60.66
46303;BME280;32029;51.358;5.628;2023-05-21T09:26:34;101389.84;;;22.16;61.07
46303;BME280;32029;51.358;5.628;2023-05-21T09:29:01;101402.13;;;22.32;60.82
46303;BME280;32029;51.358;5.628;2023-05-21T09:31:28;101403.56;;;22.34;61.10
46303;BME280;32029;51.358;5.628;2023-05-21T09:33:56;101413.84;;;22.45;60.64
46303;BME280;32029;51.358;5.628;2023-05-21T09:36:23;101406.06;;;22.47;60.39
46303;BME280;32029;51.358;5.628;2023-05-21T09:38:51;101407.59;;;22.55;60.47
46303;BME280;32029;51.358;5.628;2023-05-21T09:41:30;101411.91;;;22.63;60.17
46303;BME280;32029;51.358;5.628;2023-05-21T09:43:59;101395.03;;;22.58;60.30
46303;BME280;32029;51.358;5.628;2023-05-21T09:46:26;101417.66;;;22.73;60.06
46303;BME280;32029;51.358;5.628;2023-05-21T09:48:52;101410.47;;;22.77;59.27
46303;BME280;32029;51.358;5.628;2023-05-21T09:51:19;101413.88;;;22.79;59.88
46303;BME280;32029;51.358;5.628;2023-05-21T09:53:50;101413.38;;;22.82;59.91
46303;BME280;32029;51.358;5.628;2023-05-21T09:56:22;101405.22;;;22.81;60.11
46303;BME280;32029;51.358;5.628;2023-05-21T09:58:56;101392.66;;;22.83;59.83
46303;BME280;32029;51.358;5.628;2023-05-21T10:01:24;101387.06;;;22.83;59.74
46303;BME280;32029;51.358;5.628;2023-05-21T10:03:56;101406.94;;;22.98;59.80
46303;BME280;32029;51.358;5.628;2023-05-21T10:06:30;101398.03;;;23.02;59.43
46303;BME280;32029;51.358;5.628;2023-05-21T10:09:01;101397.75;;;23.03;59.27
46303;BME280;32029;51.358;5.628;2023-05-21T10:11:30;101393.00;;;23.04;59.98
46303;BME280;32029;51.358;5.628;2023-05-21T10:14:05;101393.63;;;23.06;59.16
46303;BME280;32029;51.358;5.628;2023-05-21T10:16:34;101369.09;;;22.96;59.29
46303;BME280;32029;51.358;5.628;2023-05-21T10:19:01;101387.16;;;23.05;59.53
46303;BME280;32029;51.358;5.628;2023-05-21T10:21:29;101369.09;;;22.96;59.34
46303;BME280;32029;51.358;5.628;2023-05-21T10:23:56;101366.19;;;23.08;59.05
46303;BME280;32029;51.358;5.628;2023-05-21T10:26:23;101383.72;;;23.20;59.92
46303;BME280;32029;51.358;5.628;2023-05-21T10:28:50;101376.84;;;23.28;58.84
46303;BME280;32029;51.358;5.628;2023-05-21T10:31:18;101360.50;;;23.19;58.82
46303;BME280;32029;51.358;5.628;2023-05-21T10:33:47;101383.94;;;23.35;58.50
46303;BME280;32029;51.358;5.628;2023-05-21T10:36:17;101368.84;;;23.36;58.82
46303;BME280;32029;51.358;5.628;2023-05-21T10:38:44;101332.25;;;23.21;58.86
46303;BME280;32029;51.358;5.628;2023-05-21T10:41:14;101374.91;;;23.50;58.97
46303;BME280;32029;51.358;5.628;2023-05-21T10:43:59;101359.53;;;23.53;58.67
46303;BME280;32029;51.358;5.628;2023-05-21T10:46:32;101369.78;;;23.64;58.80
46303;BME280;32029;51.358;5.628;2023-05-21T10:52:25;101364.81;;;23.71;58.79
46303;BME280;32029;51.358;5.628;2023-05-21T10:55:12;101351.66;;;23.71;58.76
46303;BME280;32029;51.358;5.628;2023-05-21T11:00:38;101337.22;;;23.80;57.88
46303;BME280;32029;51.358;5.628;2023-05-21T11:03:06;101343.34;;;23.77;57.88
46303;BME280;32029;51.358;5.628;2023-05-21T11:08:27;101329.53;;;23.70;57.97
46303;BME280;32029;51.358;5.628;2023-05-21T11:10:57;101325.41;;;23.78;57.69
46303;BME280;32029;51.358;5.628;2023-05-21T11:13:26;101333.09;;;23.87;57.61
46303;BME280;32029;51.358;5.628;2023-05-21T11:26:20;101298.66;;;24.19;58.03
46303;BME280;32029;51.358;5.628;2023-05-21T11:29:06;101303.22;;;24.30;57.51
46303;BME280;32029;51.358;5.628;2023-05-21T11:31:35;101312.25;;;24.37;57.92
46303;BME280;32029;51.358;5.628;2023-05-21T11:36:46;101282.50;;;24.36;57.19
46303;BME280;32029;51.358;5.628;2023-05-21T11:39:16;101279.72;;;24.36;57.49
46303;BME280;32029;51.358;5.628;2023-05-21T11:41:58;101276.88;;;24.31;56.67
46303;BME280;32029;51.358;5.628;2023-05-21T11:44:43;101288.81;;;24.49;57.57
46303;BME280;32029;51.358;5.628;2023-05-21T11:47:11;101236.13;;;24.18;57.11
46303;BME280;32029;51.358;5.628;2023-05-21T11:49:41;101255.00;;;24.33;57.62
46303;BME280;32029;51.358;5.628;2023-05-21T11:52:10;101282.94;;;24.50;57.26
46303;BME280;32029;51.358;5.628;2023-05-21T11:54:49;101298.16;;;24.64;58.26
46303;BME280;32029;51.358;5.628;2023-05-21T11:57:19;101290.06;;;24.68;57.24
46303;BME280;32029;51.358;5.628;2023-05-21T11:59:47;101282.53;;;24.74;56.97
46303;BME280;32029;51.358;5.628;2023-05-21T12:02:16;101262.53;;;24.65;56.68
46303;BME280;32029;51.358;5.628;2023-05-21T12:04:45;101281.19;;;24.81;57.12
46303;BME280;32029;51.358;5.628;2023-05-21T12:07:15;101281.75;;;24.83;56.94
46303;BME280;32029;51.358;5.628;2023-05-21T12:09:45;101280.38;;;24.86;57.40
46303;BME280;32029;51.358;5.628;2023-05-21T12:12:15;101280.69;;;24.94;56.95
46303;BME280;32029;51.358;5.628;2023-05-21T12:14:45;101274.00;;;25.06;56.99
46303;BME280;32029;51.358;5.628;2023-05-21T12:17:18;101265.63;;;25.11;57.36
46303;BME280;32029;51.358;5.628;2023-05-21T12:19:45;101274.13;;;25.26;57.17
46303;BME280;32029;51.358;5.628;2023-05-21T12:22:13;101266.88;;;25.40;56.77
46303;BME280;32029;51.358;5.628;2023-05-21T12:24:45;101234.28;;;25.29;56.73
46303;BME280;32029;51.358;5.628;2023-05-21T12:27:12;101255.41;;;25.62;57.19
46303;BME280;32029;51.358;5.628;2023-05-21T12:29:41;101261.66;;;25.75;56.83
46303;BME280;32029;51.358;5.628;2023-05-21T12:32:10;101258.31;;;25.88;56.03
46303;BME280;32029;51.358;5.628;2023-05-21T12:34:43;101246.78;;;26.00;56.14
46303;BME280;32029;51.358;5.628;2023-05-21T12:37:26;101227.97;;;25.95;55.40
46303;BME280;32029;51.358;5.628;2023-05-21T12:39:56;101229.91;;;26.05;55.17
46303;BME280;32029;51.358;5.628;2023-05-21T12:42:29;101263.09;;;26.23;55.12
46303;BME280;32029;51.358;5.628;2023-05-21T12:44:57;101257.75;;;26.32;54.83
46303;BME280;32029;51.358;5.628;2023-05-21T12:47:26;101268.16;;;26.42;54.90
46303;BME280;32029;51.358;5.628;2023-05-21T12:49:55;101255.78;;;26.37;54.57
46303;BME280;32029;51.358;5.628;2023-05-21T12:52:25;101264.25;;;26.53;53.19
46303;BME280;32029;51.358;5.628;2023-05-21T12:54:56;101264.22;;;26.58;53.77
46303;BME280;32029;51.358;5.628;2023-05-21T12:57:35;101279.41;;;26.72;53.05
46303;BME280;32029;51.358;5.628;2023-05-21T13:00:04;101284.47;;;26.80;53.02
46303;BME280;32029;51.358;5.628;2023-05-21T13:02:41;101285.25;;;26.91;52.92
46303;BME280;32029;51.358;5.628;2023-05-21T13:05:09;101285.22;;;27.01;52.13
46303;BME280;32029;51.358;5.628;2023-05-21T13:07:38;101281.56;;;27.11;52.34
46303;BME280;32029;51.358;5.628;2023-05-21T13:10:06;101291.34;;;27.29;52.18
46303;BME280;32029;51.358;5.628;2023-05-21T13:12:34;101270.22;;;27.31;51.96
46303;BME280;32029;51.358;5.628;2023-05-21T13:15:03;101288.97;;;27.56;51.70
46303;BME280;32029;51.358;5.628;2023-05-21T13:17:32;101285.78;;;27.68;50.97